sensor_id;sensor_type;location;lat;lon;timestamp;temperature;humidity
68609;SHT31;55581;46.718;7.690;2023-05-07T00:00:28;12.84;90.72
68609;SHT31;55581;46.718;7.690;2023-05-07T00:02:53;12.76;91.03
68609;SHT31;55581;46.718;7.690;2023-05-07T00:05:19;12.56;91.11
68609;SHT31;55581;46.718;7.690;2023-05-07T00:07:44;12.53;91.26
68609;SHT31;55581;46.718;7.690;2023-05-07T00:10:12;12.57;91.10
68609;SHT31;55581;46.718;7.690;2023-05-07T00:12:38;12.56;91.39
68609;SHT31;55581;46.718;7.690;2023-05-07T00:15:04;12.63;91.14
68609;SHT31;55581;46.718;7.690;2023-05-07T00:17:31;12.60;90.69
68609;SHT31;55581;46.718;7.690;2023-05-07T00:19:59;12.42;91.51
68609;SHT31;55581;46.718;7.690;2023-05-07T00:22:24;12.25;91.84
68609;SHT31;55581;46.718;7.690;2023-05-07T00:24:50;12.14;92.27
68609;SHT31;55581;46.718;7.690;2023-05-07T00:27:16;12.14;92.67
68609;SHT31;55581;46.718;7.690;2023-05-07T00:29:41;12.31;92.23
68609;SHT31;55581;46.718;7.690;2023-05-07T00:32:06;12.52;91.72
68609;SHT31;55581;46.718;7.690;2023-05-07T00:34:35;12.66;90.87
68609;SHT31;55581;46.718;7.690;2023-05-07T00:37:01;12.75;90.73
68609;SHT31;55581;46.718;7.690;2023-05-07T00:39:29;12.80;90.63
68609;SHT31;55581;46.718;7.690;2023-05-07T00:41:54;12.80;91.32
68609;SHT31;55581;46.718;7.690;2023-05-07T00:44:19;12.79;91.19
68609;SHT31;55581;46.718;7.690;2023-05-07T00:46:45;12.81;91.54
68609;SHT31;55581;46.718;7.690;2023-05-07T00:49:15;12.75;91.83
68609;SHT31;55581;46.718;7.690;2023-05-07T00:51:41;12.72;92.39
68609;SHT31;55581;46.718;7.690;2023-05-07T00:54:07;12.60;92.04
68609;SHT31;55581;46.718;7.690;2023-05-07T00:56:36;12.55;92.51
68609;SHT31;55581;46.718;7.690;2023-05-07T00:59:04;12.43;92.90
68609;SHT31;55581;46.718;7.690;2023-05-07T01:01:31;12.35;92.88
68609;SHT31;55581;46.718;7.690;2023-05-07T01:03:57;12.32;93.12
68609;SHT31;55581;46.718;7.690;2023-05-07T01:06:24;12.25;92.95
68609;SHT31;55581;46.718;7.690;2023-05-07T01:08:51;12.17;93.13
68609;SHT31;55581;46.718;7.690;2023-05-07T01:11:18;12.11;92.88
68609;SHT31;55581;46.718;7.690;2023-05-07T01:13:46;12.08;92.31
68609;SHT31;55581;46.718;7.690;2023-05-07T01:16:11;11.99;92.52
68609;SHT31;55581;46.718;7.690;2023-05-07T01:18:39;11.99;92.26
68609;SHT31;55581;46.718;7.690;2023-05-07T01:21:05;11.91;92.51
68609;SHT31;55581;46.718;7.690;2023-05-07T01:23:32;11.81;92.93
68609;SHT31;55581;46.718;7.690;2023-05-07T01:25:58;11.73;93.29
68609;SHT31;55581;46.718;7.690;2023-05-07T01:28:26;11.74;93.26
68609;SHT31;55581;46.718;7.690;2023-05-07T01:30:57;11.66;93.78
68609;SHT31;55581;46.718;7.690;2023-05-07T01:33:25;11.69;94.22
68609;SHT31;55581;46.718;7.690;2023-05-07T01:35:54;11.70;94.11
68609;SHT31;55581;46.718;7.690;2023-05-07T01:38:21;11.71;94.57
68609;SHT31;55581;46.718;7.690;2023-05-07T01:40:47;11.76;94.74
68609;SHT31;55581;46.718;7.690;2023-05-07T01:43:12;11.77;94.25
68609;SHT31;55581;46.718;7.690;2023-05-07T01:45:38;11.85;94.75
68609;SHT31;55581;46.718;7.690;2023-05-07T01:48:06;11.88;94.17
68609;SHT31;55581;46.718;7.690;2023-05-07T01:50:32;11.84;92.95
68609;SHT31;55581;46.718;7.690;2023-05-07T01:53:00;11.84;94.27
68609;SHT31;55581;46.718;7.690;2023-05-07T01:55:26;11.80;93.08
68609;SHT31;55581;46.718;7.690;2023-05-07T01:57:54;11.74;92.47
68609;SHT31;55581;46.718;7.690;2023-05-07T02:00:19;11.76;92.61
68609;SHT31;55581;46.718;7.690;2023-05-07T02:02:47;11.67;93.22
68609;SHT31;55581;46.718;7.690;2023-05-07T02:05:13;11.65;93.45
68609;SHT31;55581;46.718;7.690;2023-05-07T02:07:38;11.57;93.83
68609;SHT31;55581;46.718;7.690;2023-05-07T02:10:04;11.59;94.39
68609;SHT31;55581;46.718;7.690;2023-05-07T02:12:30;11.57;94.56
68609;SHT31;55581;46.718;7.690;2023-05-07T02:14:55;11.53;94.13
68609;SHT31;55581;46.718;7.690;2023-05-07T02:17:21;11.53;94.06
68609;SHT31;55581;46.718;7.690;2023-05-07T02:19:46;11.53;94.28
68609;SHT31;55581;46.718;7.690;2023-05-07T02:22:11;11.52;93.96
68609;SHT31;55581;46.718;7.690;2023-05-07T02:24:37;11.52;93.87
68609;SHT31;55581;46.718;7.690;2023-05-07T02:27:03;11.52;93.66
68609;SHT31;55581;46.718;7.690;2023-05-07T02:29:29;11.55;93.67
68609;SHT31;55581;46.718;7.690;2023-05-07T02:31:54;11.47;93.67
68609;SHT31;55581;46.718;7.690;2023-05-07T02:34:20;11.42;93.48
68609;SHT31;55581;46.718;7.690;2023-05-07T02:36:46;11.44;93.40
68609;SHT31;55581;46.718;7.690;2023-05-07T02:39:12;11.43;93.80
68609;SHT31;55581;46.718;7.690;2023-05-07T02:41:38;11.43;93.70
68609;SHT31;55581;46.718;7.690;2023-05-07T02:44:03;11.39;94.17
68609;SHT31;55581;46.718;7.690;2023-05-07T02:46:31;11.38;94.49
68609;SHT31;55581;46.718;7.690;2023-05-07T02:48:57;11.32;94.18
68609;SHT31;55581;46.718;7.690;2023-05-07T02:51:25;11.30;94.57
68609;SHT31;55581;46.718;7.690;2023-05-07T02:53:51;11.30;94.64
68609;SHT31;55581;46.718;7.690;2023-05-07T02:56:16;11.32;94.70
68609;SHT31;55581;46.718;7.690;2023-05-07T02:58:42;11.33;94.63
68609;SHT31;55581;46.718;7.690;2023-05-07T03:01:07;11.35;94.55
68609;SHT31;55581;46.718;7.690;2023-05-07T03:03:33;11.36;94.22
68609;SHT31;55581;46.718;7.690;2023-05-07T03:05:59;11.39;94.41
68609;SHT31;55581;46.718;7.690;2023-05-07T03:08:25;11.39;94.11
68609;SHT31;55581;46.718;7.690;2023-05-07T03:10:50;11.38;94.39
68609;SHT31;55581;46.718;7.690;2023-05-07T03:13:16;11.42;94.23
68609;SHT31;55581;46.718;7.690;2023-05-07T03:15:43;11.46;94.11
68609;SHT31;55581;46.718;7.690;2023-05-07T03:18:09;11.50;94.09
68609;SHT31;55581;46.718;7.690;2023-05-07T03:20:35;11.52;93.94
68609;SHT31;55581;46.718;7.690;2023-05-07T03:23:04;11.60;93.78
68609;SHT31;55581;46.718;7.690;2023-05-07T03:25:29;11.56;94.00
68609;SHT31;55581;46.718;7.690;2023-05-07T03:27:58;11.56;93.58
68609;SHT31;55581;46.718;7.690;2023-05-07T03:30:25;11.56;93.25
68609;SHT31;55581;46.718;7.690;2023-05-07T03:32:51;11.53;93.12
68609;SHT31;55581;46.718;7.690;2023-05-07T03:35:17;11.53;93.75
68609;SHT31;55581;46.718;7.690;2023-05-07T03:37:42;11.52;93.85
68609;SHT31;55581;46.718;7.690;2023-05-07T03:40:08;11.47;94.23
68609;SHT31;55581;46.718;7.690;2023-05-07T03:42:35;11.50;94.49
68609;SHT31;55581;46.718;7.690;2023-05-07T03:45:03;11.47;94.42
68609;SHT31;55581;46.718;7.690;2023-05-07T03:47:29;11.47;94.65
68609;SHT31;55581;46.718;7.690;2023-05-07T03:49:55;11.49;94.44
68609;SHT31;55581;46.718;7.690;2023-05-07T03:52:22;11.56;94.57
68609;SHT31;55581;46.718;7.690;2023-05-07T03:54:51;11.62;94.36
68609;SHT31;55581;46.718;7.690;2023-05-07T03:57:17;11.59;94.49
68609;SHT31;55581;46.718;7.690;2023-05-07T03:59:42;11.62;94.29
68609;SHT31;55581;46.718;7.690;2023-05-07T04:02:08;11.55;94.30
68609;SHT31;55581;46.718;7.690;2023-05-07T04:04:33;11.53;94.59
68609;SHT31;55581;46.718;7.690;2023-05-07T04:07:01;11.52;94.44
68609;SHT31;55581;46.718;7.690;2023-05-07T04:09:26;11.53;94.83
68609;SHT31;55581;46.718;7.690;2023-05-07T04:11:51;11.59;94.92
68609;SHT31;55581;46.718;7.690;2023-05-07T04:14:17;11.65;95.03
68609;SHT31;55581;46.718;7.690;2023-05-07T04:16:42;11.67;94.99
68609;SHT31;55581;46.718;7.690;2023-05-07T04:19:10;11.67;94.67
68609;SHT31;55581;46.718;7.690;2023-05-07T04:21:35;11.62;94.80
68609;SHT31;55581;46.718;7.690;2023-05-07T04:24:03;11.63;95.18
68609;SHT31;55581;46.718;7.690;2023-05-07T04:26:28;11.65;95.10
68609;SHT31;55581;46.718;7.690;2023-05-07T04:28:54;11.63;94.84
68609;SHT31;55581;46.718;7.690;2023-05-07T04:31:20;11.62;95.47
68609;SHT31;55581;46.718;7.690;2023-05-07T04:33:46;11.63;95.38
68609;SHT31;55581;46.718;7.690;2023-05-07T04:36:11;11.71;95.14
68609;SHT31;55581;46.718;7.690;2023-05-07T04:38:37;11.76;94.33
68609;SHT31;55581;46.718;7.690;2023-05-07T04:41:03;11.94;92.52
68609;SHT31;55581;46.718;7.690;2023-05-07T04:43:31;12.15;90.36
68609;SHT31;55581;46.718;7.690;2023-05-07T04:45:56;12.28;89.35
68609;SHT31;55581;46.718;7.690;2023-05-07T04:48:22;12.33;90.28
68609;SHT31;55581;46.718;7.690;2023-05-07T04:50:48;12.26;92.02
68609;SHT31;55581;46.718;7.690;2023-05-07T04:53:14;12.24;92.23
68609;SHT31;55581;46.718;7.690;2023-05-07T04:55:39;12.17;92.80
68609;SHT31;55581;46.718;7.690;2023-05-07T04:58:05;12.11;92.56
68609;SHT31;55581;46.718;7.690;2023-05-07T05:00:31;12.11;92.34
68609;SHT31;55581;46.718;7.690;2023-05-07T05:02:57;12.11;92.67
68609;SHT31;55581;46.718;7.690;2023-05-07T05:05:22;12.08;93.11
68609;SHT31;55581;46.718;7.690;2023-05-07T05:07:47;12.12;92.86
68609;SHT31;55581;46.718;7.690;2023-05-07T05:10:13;12.12;92.33
68609;SHT31;55581;46.718;7.690;2023-05-07T05:12:38;12.14;92.16
68609;SHT31;55581;46.718;7.690;2023-05-07T05:15:05;12.11;92.89
68609;SHT31;55581;46.718;7.690;2023-05-07T05:17:30;12.08;93.43
68609;SHT31;55581;46.718;7.690;2023-05-07T05:19:59;12.15;93.02
68609;SHT31;55581;46.718;7.690;2023-05-07T05:22:25;12.20;92.88
68609;SHT31;55581;46.718;7.690;2023-05-07T05:24:50;12.20;92.96
68609;SHT31;55581;46.718;7.690;2023-05-07T05:27:19;12.25;93.39
68609;SHT31;55581;46.718;7.690;2023-05-07T05:29:44;12.31;93.08
68609;SHT31;55581;46.718;7.690;2023-05-07T05:32:10;12.42;92.91
68609;SHT31;55581;46.718;7.690;2023-05-07T05:34:37;12.53;93.44
68609;SHT31;55581;46.718;7.690;2023-05-07T05:37:03;12.57;92.71
68609;SHT31;55581;46.718;7.690;2023-05-07T05:39:28;12.61;92.73
68609;SHT31;55581;46.718;7.690;2023-05-07T05:41:54;12.67;92.76
68609;SHT31;55581;46.718;7.690;2023-05-07T05:44:19;12.75;92.32
68609;SHT31;55581;46.718;7.690;2023-05-07T05:46:45;12.75;92.75
68609;SHT31;55581;46.718;7.690;2023-05-07T05:49:10;12.72;92.67
68609;SHT31;55581;46.718;7.690;2023-05-07T05:51:36;12.79;92.84
68609;SHT31;55581;46.718;7.690;2023-05-07T05:54:03;12.83;92.96
68609;SHT31;55581;46.718;7.690;2023-05-07T05:56:29;12.90;92.66
68609;SHT31;55581;46.718;7.690;2023-05-07T05:58:57;12.95;91.91
68609;SHT31;55581;46.718;7.690;2023-05-07T06:01:23;13.08;91.25
68609;SHT31;55581;46.718;7.690;2023-05-07T06:03:49;13.11;90.56
68609;SHT31;55581;46.718;7.690;2023-05-07T06:06:14;13.25;89.91
68609;SHT31;55581;46.718;7.690;2023-05-07T06:08:40;13.28;88.93
68609;SHT31;55581;46.718;7.690;2023-05-07T06:11:05;13.31;89.85
68609;SHT31;55581;46.718;7.690;2023-05-07T06:13:31;13.32;91.18
68609;SHT31;55581;46.718;7.690;2023-05-07T06:15:56;13.43;91.02
68609;SHT31;55581;46.718;7.690;2023-05-07T06:18:22;13.34;90.61
68609;SHT31;55581;46.718;7.690;2023-05-07T06:20:47;13.46;91.37
68609;SHT31;55581;46.718;7.690;2023-05-07T06:23:14;13.43;90.57
68609;SHT31;55581;46.718;7.690;2023-05-07T06:25:39;13.52;90.20
68609;SHT31;55581;46.718;7.690;2023-05-07T06:28:05;13.63;90.04
68609;SHT31;55581;46.718;7.690;2023-05-07T06:30:33;13.60;90.54
68609;SHT31;55581;46.718;7.690;2023-05-07T06:33:01;13.55;89.81
68609;SHT31;55581;46.718;7.690;2023-05-07T06:35:26;13.67;89.75
68609;SHT31;55581;46.718;7.690;2023-05-07T06:37:51;13.71;88.12
68609;SHT31;55581;46.718;7.690;2023-05-07T06:40:17;13.76;89.09
68609;SHT31;55581;46.718;7.690;2023-05-07T06:42:42;13.87;89.32
68609;SHT31;55581;46.718;7.690;2023-05-07T06:45:08;13.93;88.41
68609;SHT31;55581;46.718;7.690;2023-05-07T06:47:33;14.08;88.51
68609;SHT31;55581;46.718;7.690;2023-05-07T06:49:59;14.34;87.18
68609;SHT31;55581;46.718;7.690;2023-05-07T06:52:24;14.49;85.35
68609;SHT31;55581;46.718;7.690;2023-05-07T06:54:50;14.52;84.55
68609;SHT31;55581;46.718;7.690;2023-05-07T06:57:15;14.69;84.70
68609;SHT31;55581;46.718;7.690;2023-05-07T06:59:43;14.90;85.60
68609;SHT31;55581;46.718;7.690;2023-05-07T07:02:09;15.16;84.55
68609;SHT31;55581;46.718;7.690;2023-05-07T07:04:34;15.42;83.61
68609;SHT31;55581;46.718;7.690;2023-05-07T07:06:59;15.49;81.87
68609;SHT31;55581;46.718;7.690;2023-05-07T07:09:25;15.46;81.96
68609;SHT31;55581;46.718;7.690;2023-05-07T07:11:50;15.44;81.61
68609;SHT31;55581;46.718;7.690;2023-05-07T07:14:16;15.41;81.95
68609;SHT31;55581;46.718;7.690;2023-05-07T07:16:41;15.46;80.22
68609;SHT31;55581;46.718;7.690;2023-05-07T07:19:06;15.73;77.60
68609;SHT31;55581;46.718;7.690;2023-05-07T07:21:32;15.83;78.94
68609;SHT31;55581;46.718;7.690;2023-05-07T07:23:59;15.86;81.27
68609;SHT31;55581;46.718;7.690;2023-05-07T07:26:24;15.87;80.54
68609;SHT31;55581;46.718;7.690;2023-05-07T07:28:52;15.74;79.47
68609;SHT31;55581;46.718;7.690;2023-05-07T07:31:17;15.72;79.50
68609;SHT31;55581;46.718;7.690;2023-05-07T07:33:45;15.66;78.77
68609;SHT31;55581;46.718;7.690;2023-05-07T07:36:10;15.63;81.33
68609;SHT31;55581;46.718;7.690;2023-05-07T07:38:36;15.58;83.34
68609;SHT31;55581;46.718;7.690;2023-05-07T07:41:02;15.49;85.15
68609;SHT31;55581;46.718;7.690;2023-05-07T07:43:27;15.38;85.13
68609;SHT31;55581;46.718;7.690;2023-05-07T07:45:53;15.31;81.54
68609;SHT31;55581;46.718;7.690;2023-05-07T07:48:23;15.23;82.27
68609;SHT31;55581;46.718;7.690;2023-05-07T07:50:49;14.97;85.55
68609;SHT31;55581;46.718;7.690;2023-05-07T07:53:15;14.87;84.69
68609;SHT31;55581;46.718;7.690;2023-05-07T07:55:46;14.86;86.43
68609;SHT31;55581;46.718;7.690;2023-05-07T07:58:11;14.79;87.05
68609;SHT31;55581;46.718;7.690;2023-05-07T08:00:36;14.61;85.40
68609;SHT31;55581;46.718;7.690;2023-05-07T08:03:02;14.68;87.10
68609;SHT31;55581;46.718;7.690;2023-05-07T08:05:28;14.73;86.77
68609;SHT31;55581;46.718;7.690;2023-05-07T08:07:54;14.62;85.21
68609;SHT31;55581;46.718;7.690;2023-05-07T08:10:19;14.56;87.29
68609;SHT31;55581;46.718;7.690;2023-05-07T08:12:48;14.38;87.54
68609;SHT31;55581;46.718;7.690;2023-05-07T08:15:17;14.39;85.75
68609;SHT31;55581;46.718;7.690;2023-05-07T08:17:43;14.43;86.79
68609;SHT31;55581;46.718;7.690;2023-05-07T08:20:09;14.51;86.85
68609;SHT31;55581;46.718;7.690;2023-05-07T08:22:35;14.65;87.86
68609;SHT31;55581;46.718;7.690;2023-05-07T08:25:01;14.79;87.60
68609;SHT31;55581;46.718;7.690;2023-05-07T08:27:26;14.98;88.19
68609;SHT31;55581;46.718;7.690;2023-05-07T08:29:54;15.16;88.87
68609;SHT31;55581;46.718;7.690;2023-05-07T08:32:20;15.27;89.17
68609;SHT31;55581;46.718;7.690;2023-05-07T08:34:46;15.51;88.49
68609;SHT31;55581;46.718;7.690;2023-05-07T08:37:12;15.72;84.09
68609;SHT31;55581;46.718;7.690;2023-05-07T08:39:37;15.74;82.63
68609;SHT31;55581;46.718;7.690;2023-05-07T08:42:04;15.79;82.97
68609;SHT31;55581;46.718;7.690;2023-05-07T08:44:33;15.72;83.61
68609;SHT31;55581;46.718;7.690;2023-05-07T08:47:01;15.89;82.67
68609;SHT31;55581;46.718;7.690;2023-05-07T08:49:27;16.04;81.92
68609;SHT31;55581;46.718;7.690;2023-05-07T08:51:53;16.18;81.75
68609;SHT31;55581;46.718;7.690;2023-05-07T08:54:18;16.20;79.43
68609;SHT31;55581;46.718;7.690;2023-05-07T08:56:45;16.38;82.17
68609;SHT31;55581;46.718;7.690;2023-05-07T08:59:11;16.69;80.18
68609;SHT31;55581;46.718;7.690;2023-05-07T09:01:36;17.00;80.52
68609;SHT31;55581;46.718;7.690;2023-05-07T09:04:04;17.03;79.36
68609;SHT31;55581;46.718;7.690;2023-05-07T09:06:30;17.06;79.79
68609;SHT31;55581;46.718;7.690;2023-05-07T09:08:58;17.14;79.28
68609;SHT31;55581;46.718;7.690;2023-05-07T09:11:26;17.16;78.96
68609;SHT31;55581;46.718;7.690;2023-05-07T09:13:55;17.10;78.12
68609;SHT31;55581;46.718;7.690;2023-05-07T09:16:22;17.24;79.02
68609;SHT31;55581;46.718;7.690;2023-05-07T09:18:51;17.19;80.04
68609;SHT31;55581;46.718;7.690;2023-05-07T09:21:18;17.09;77.33
68609;SHT31;55581;46.718;7.690;2023-05-07T09:23:44;17.14;78.54
68609;SHT31;55581;46.718;7.690;2023-05-07T09:26:09;17.14;77.22
68609;SHT31;55581;46.718;7.690;2023-05-07T09:28:41;17.11;74.93
68609;SHT31;55581;46.718;7.690;2023-05-07T09:31:07;17.32;79.01
68609;SHT31;55581;46.718;7.690;2023-05-07T09:33:33;17.32;79.35
68609;SHT31;55581;46.718;7.690;2023-05-07T09:36:02;17.20;77.97
68609;SHT31;55581;46.718;7.690;2023-05-07T09:38:28;17.16;76.51
68609;SHT31;55581;46.718;7.690;2023-05-07T09:43:32;17.13;76.69
68609;SHT31;55581;46.718;7.690;2023-05-07T09:46:02;17.35;78.02
68609;SHT31;55581;46.718;7.690;2023-05-07T09:48:29;17.48;77.27
68609;SHT31;55581;46.718;7.690;2023-05-07T09:51:01;17.41;77.41
68609;SHT31;55581;46.718;7.690;2023-05-07T09:53:29;17.41;77.54
68609;SHT31;55581;46.718;7.690;2023-05-07T09:55:56;17.54;76.95
68609;SHT31;55581;46.718;7.690;2023-05-07T09:58:25;17.57;77.11
68609;SHT31;55581;46.718;7.690;2023-05-07T10:00:53;17.74;76.34
68609;SHT31;55581;46.718;7.690;2023-05-07T10:03:19;17.87;75.55
68609;SHT31;55581;46.718;7.690;2023-05-07T10:05:46;18.04;75.16
68609;SHT31;55581;46.718;7.690;2023-05-07T10:08:12;18.06;74.09
68609;SHT31;55581;46.718;7.690;2023-05-07T10:10:38;18.16;73.17
68609;SHT31;55581;46.718;7.690;2023-05-07T10:13:03;18.20;70.08
68609;SHT31;55581;46.718;7.690;2023-05-07T10:15:35;18.18;71.00
68609;SHT31;55581;46.718;7.690;2023-05-07T10:18:04;18.45;72.20
68609;SHT31;55581;46.718;7.690;2023-05-07T10:20:35;18.59;71.90
68609;SHT31;55581;46.718;7.690;2023-05-07T10:23:04;18.82;72.08
68609;SHT31;55581;46.718;7.690;2023-05-07T10:25:30;18.89;71.94
68609;SHT31;55581;46.718;7.690;2023-05-07T10:28:08;18.85;69.48
68609;SHT31;55581;46.718;7.690;2023-05-07T10:33:13;18.86;70.34
68609;SHT31;55581;46.718;7.690;2023-05-07T10:35:44;19.14;69.62
68609;SHT31;55581;46.718;7.690;2023-05-07T10:38:10;19.26;69.79
68609;SHT31;55581;46.718;7.690;2023-05-07T10:40:38;19.41;68.90
68609;SHT31;55581;46.718;7.690;2023-05-07T10:43:07;19.38;69.65
68609;SHT31;55581;46.718;7.690;2023-05-07T10:45:37;19.40;69.38
68609;SHT31;55581;46.718;7.690;2023-05-07T10:50:42;19.26;68.67
68609;SHT31;55581;46.718;7.690;2023-05-07T10:55:43;19.28;66.58
68609;SHT31;55581;46.718;7.690;2023-05-07T11:00:50;19.78;67.95
68609;SHT31;55581;46.718;7.690;2023-05-07T11:03:16;19.90;67.90
68609;SHT31;55581;46.718;7.690;2023-05-07T11:05:42;19.75;66.55
68609;SHT31;55581;46.718;7.690;2023-05-07T11:08:08;19.85;68.72
68609;SHT31;55581;46.718;7.690;2023-05-07T11:10:55;19.75;67.69
68609;SHT31;55581;46.718;7.690;2023-05-07T11:13:43;19.72;66.76
68609;SHT31;55581;46.718;7.690;2023-05-07T11:16:23;19.89;67.95
68609;SHT31;55581;46.718;7.690;2023-05-07T11:18:54;20.08;67.33
68609;SHT31;55581;46.718;7.690;2023-05-07T11:21:42;19.96;65.81
68609;SHT31;55581;46.718;7.690;2023-05-07T11:24:09;19.95;66.74
68609;SHT31;55581;46.718;7.690;2023-05-07T11:26:50;20.40;66.04
68609;SHT31;55581;46.718;7.690;2023-05-07T11:29:18;20.71;63.33
68609;SHT31;55581;46.718;7.690;2023-05-07T11:31:48;20.94;61.58
68609;SHT31;55581;46.718;7.690;2023-05-07T11:34:13;21.53;62.65
68609;SHT31;55581;46.718;7.690;2023-05-07T11:36:42;21.77;59.31
68609;SHT31;55581;46.718;7.690;2023-05-07T11:39:28;22.12;58.82
68609;SHT31;55581;46.718;7.690;2023-05-07T11:41:54;21.81;59.50
68609;SHT31;55581;46.718;7.690;2023-05-07T11:44:19;21.57;60.13
68609;SHT31;55581;46.718;7.690;2023-05-07T11:46:48;21.26;61.39
68609;SHT31;55581;46.718;7.690;2023-05-07T11:49:14;20.78;65.17
68609;SHT31;55581;46.718;7.690;2023-05-07T11:51:42;20.33;66.66
68609;SHT31;55581;46.718;7.690;2023-05-07T11:54:08;20.10;67.55
68609;SHT31;55581;46.718;7.690;2023-05-07T11:56:37;19.88;68.85
68609;SHT31;55581;46.718;7.690;2023-05-07T11:59:02;19.75;69.17
68609;SHT31;55581;46.718;7.690;2023-05-07T12:01:28;19.81;69.81
68609;SHT31;55581;46.718;7.690;2023-05-07T12:03:53;19.95;70.08
68609;SHT31;55581;46.718;7.690;2023-05-07T12:06:18;20.06;69.85
68609;SHT31;55581;46.718;7.690;2023-05-07T12:08:48;20.20;68.28
68609;SHT31;55581;46.718;7.690;2023-05-07T12:11:15;20.39;66.92
68609;SHT31;55581;46.718;7.690;2023-05-07T12:13:43;20.22;66.03
68609;SHT31;55581;46.718;7.690;2023-05-07T12:16:09;20.17;67.44
68609;SHT31;55581;46.718;7.690;2023-05-07T12:18:35;20.09;69.55
68609;SHT31;55581;46.718;7.690;2023-05-07T12:21:02;20.27;70.49
68609;SHT31;55581;46.718;7.690;2023-05-07T12:23:29;20.43;68.71
68609;SHT31;55581;46.718;7.690;2023-05-07T12:25:55;20.26;69.05
68609;SHT31;55581;46.718;7.690;2023-05-07T12:28:20;20.26;70.11
68609;SHT31;55581;46.718;7.690;2023-05-07T12:30:47;20.55;69.92
68609;SHT31;55581;46.718;7.690;2023-05-07T12:33:17;20.39;67.91
68609;SHT31;55581;46.718;7.690;2023-05-07T12:35:43;20.33;68.42
68609;SHT31;55581;46.718;7.690;2023-05-07T12:38:11;20.52;69.38
68609;SHT31;55581;46.718;7.690;2023-05-07T12:43:07;20.74;65.07
68609;SHT31;55581;46.718;7.690;2023-05-07T12:45:40;20.87;65.74
68609;SHT31;55581;46.718;7.690;2023-05-07T12:48:06;21.23;63.16
68609;SHT31;55581;46.718;7.690;2023-05-07T12:50:32;21.39;63.33
68609;SHT31;55581;46.718;7.690;2023-05-07T12:53:00;21.57;62.19
68609;SHT31;55581;46.718;7.690;2023-05-07T12:55:32;21.50;63.35
68609;SHT31;55581;46.718;7.690;2023-05-07T12:58:00;21.54;63.07
68609;SHT31;55581;46.718;7.690;2023-05-07T13:00:37;21.67;62.74
68609;SHT31;55581;46.718;7.690;2023-05-07T13:03:03;21.78;62.39
68609;SHT31;55581;46.718;7.690;2023-05-07T13:05:31;21.55;62.23
68609;SHT31;55581;46.718;7.690;2023-05-07T13:07:57;21.15;63.31
68609;SHT31;55581;46.718;7.690;2023-05-07T13:10:23;21.06;63.60
68609;SHT31;55581;46.718;7.690;2023-05-07T13:12:49;20.64;64.24
68609;SHT31;55581;46.718;7.690;2023-05-07T13:15:17;20.55;65.64
68609;SHT31;55581;46.718;7.690;2023-05-07T13:17:44;20.32;66.10
68609;SHT31;55581;46.718;7.690;2023-05-07T13:20:10;20.17;67.65
68609;SHT31;55581;46.718;7.690;2023-05-07T13:22:36;20.19;67.54
68609;SHT31;55581;46.718;7.690;2023-05-07T13:25:02;19.53;67.94
68609;SHT31;55581;46.718;7.690;2023-05-07T13:27:27;19.16;65.44
68609;SHT31;55581;46.718;7.690;2023-05-07T13:29:56;19.13;66.15
68609;SHT31;55581;46.718;7.690;2023-05-07T13:32:21;18.92;65.73
68609;SHT31;55581;46.718;7.690;2023-05-07T13:34:49;18.76;65.49
68609;SHT31;55581;46.718;7.690;2023-05-07T13:37:15;18.52;64.16
68609;SHT31;55581;46.718;7.690;2023-05-07T13:39:42;18.20;64.01
68609;SHT31;55581;46.718;7.690;2023-05-07T13:42:08;18.06;63.88
68609;SHT31;55581;46.718;7.690;2023-05-07T13:44:35;17.81;64.45
68609;SHT31;55581;46.718;7.690;2023-05-07T13:47:00;17.66;64.56
68609;SHT31;55581;46.718;7.690;2023-05-07T13:49:27;17.44;65.59
68609;SHT31;55581;46.718;7.690;2023-05-07T13:51:53;17.16;68.26
68609;SHT31;55581;46.718;7.690;2023-05-07T13:54:18;17.03;69.40
68609;SHT31;55581;46.718;7.690;2023-05-07T13:56:43;16.86;70.64
68609;SHT31;55581;46.718;7.690;2023-05-07T13:59:09;16.83;71.09
68609;SHT31;55581;46.718;7.690;2023-05-07T14:01:34;16.80;72.05
68609;SHT31;55581;46.718;7.690;2023-05-07T14:04:00;16.82;72.99
68609;SHT31;55581;46.718;7.690;2023-05-07T14:06:25;16.73;73.34
68609;SHT31;55581;46.718;7.690;2023-05-07T14:08:53;16.65;74.80
68609;SHT31;55581;46.718;7.690;2023-05-07T14:11:21;16.65;75.38
68609;SHT31;55581;46.718;7.690;2023-05-07T14:13:46;16.52;75.36
68609;SHT31;55581;46.718;7.690;2023-05-07T14:16:11;16.58;75.07
68609;SHT31;55581;46.718;7.690;2023-05-07T14:18:37;16.61;74.91
68609;SHT31;55581;46.718;7.690;2023-05-07T14:21:05;16.69;75.59
68609;SHT31;55581;46.718;7.690;2023-05-07T14:23:31;16.56;76.25
68609;SHT31;55581;46.718;7.690;2023-05-07T14:25:59;16.38;78.03
68609;SHT31;55581;46.718;7.690;2023-05-07T14:28:25;16.27;78.85
68609;SHT31;55581;46.718;7.690;2023-05-07T14:30:52;16.18;79.27
68609;SHT31;55581;46.718;7.690;2023-05-07T14:33:18;16.28;79.92
68609;SHT31;55581;46.718;7.690;2023-05-07T14:35:45;16.22;79.53
68609;SHT31;55581;46.718;7.690;2023-05-07T14:38:14;16.16;78.84
68609;SHT31;55581;46.718;7.690;2023-05-07T14:40:39;16.03;79.24
68609;SHT31;55581;46.718;7.690;2023-05-07T14:43:05;16.06;76.96
68609;SHT31;55581;46.718;7.690;2023-05-07T14:45:30;16.07;75.62
68609;SHT31;55581;46.718;7.690;2023-05-07T14:47:55;15.85;76.94
68609;SHT31;55581;46.718;7.690;2023-05-07T14:50:21;15.70;78.21
68609;SHT31;55581;46.718;7.690;2023-05-07T14:52:46;15.76;79.48
68609;SHT31;55581;46.718;7.690;2023-05-07T14:55:12;15.69;80.02
68609;SHT31;55581;46.718;7.690;2023-05-07T14:57:37;15.70;82.66
68609;SHT31;55581;46.718;7.690;2023-05-07T15:00:04;15.73;82.86
68609;SHT31;55581;46.718;7.690;2023-05-07T15:02:33;15.74;84.75
68609;SHT31;55581;46.718;7.690;2023-05-07T15:04:59;15.69;83.88
68609;SHT31;55581;46.718;7.690;2023-05-07T15:07:24;15.66;86.08
68609;SHT31;55581;46.718;7.690;2023-05-07T15:09:51;15.62;87.01
68609;SHT31;55581;46.718;7.690;2023-05-07T15:12:19;15.52;83.04
68609;SHT31;55581;46.718;7.690;2023-05-07T15:14:46;15.55;85.06
68609;SHT31;55581;46.718;7.690;2023-05-07T15:17:12;15.46;86.87
68609;SHT31;55581;46.718;7.690;2023-05-07T15:19:40;15.42;85.35
68609;SHT31;55581;46.718;7.690;2023-05-07T15:22:05;15.23;83.85
68609;SHT31;55581;46.718;7.690;2023-05-07T15:24:31;15.18;86.17
68609;SHT31;55581;46.718;7.690;2023-05-07T15:26:57;15.10;84.27
68609;SHT31;55581;46.718;7.690;2023-05-07T15:29:28;15.24;84.33
68609;SHT31;55581;46.718;7.690;2023-05-07T15:31:57;15.20;84.55
68609;SHT31;55581;46.718;7.690;2023-05-07T15:34:22;15.16;84.60
68609;SHT31;55581;46.718;7.690;2023-05-07T15:36:49;15.11;88.07
68609;SHT31;55581;46.718;7.690;2023-05-07T15:39:14;14.96;87.88
68609;SHT31;55581;46.718;7.690;2023-05-07T15:41:40;14.80;88.29